createdAt,value
2023-11-10T00:01:06.365Z,2.40
2023-11-10T00:06:23.083Z,2.20
2023-11-10T00:08:52.038Z,2.35
2023-11-10T00:11:20.184Z,1.75
2023-11-10T00:13:49.471Z,2.10
2023-11-10T00:16:19.827Z,2.15
2023-11-10T00:18:48.319Z,2.10
2023-11-10T00:21:23.256Z,2.35
2023-11-10T00:23:53.920Z,2.33
2023-11-10T00:26:23.161Z,2.03
2023-11-10T00:28:53.643Z,1.83
2023-11-10T00:31:21.658Z,2.05
2023-11-10T00:33:52.875Z,1.83
2023-11-10T00:36:22.919Z,2.72
2023-11-10T00:38:51.660Z,2.25
2023-11-10T00:41:20.816Z,2.13
2023-11-10T00:43:51.246Z,2.38
2023-11-10T00:46:19.974Z,2.40
2023-11-10T00:48:48.612Z,2.58
2023-11-10T00:51:16.758Z,2.40
2023-11-10T00:53:45.318Z,2.80
2023-11-10T00:56:13.317Z,2.08
2023-11-10T00:58:41.666Z,2.13
2023-11-10T01:01:09.676Z,2.42
2023-11-10T01:03:38.304Z,2.60
2023-11-10T01:06:06.916Z,2.78
2023-11-10T01:08:35.807Z,3.40
2023-11-10T01:11:04.103Z,3.38
2023-11-10T01:13:34.053Z,3.55
2023-11-10T01:16:03.170Z,3.67
2023-11-10T01:18:32.922Z,3.45
2023-11-10T01:21:01.546Z,4.50
2023-11-10T01:23:30.862Z,4.90
2023-11-10T01:25:58.998Z,5.47
2023-11-10T01:28:27.750Z,4.40
2023-11-10T01:30:56.242Z,4.90
2023-11-10T01:33:24.957Z,5.47
2023-11-10T01:35:53.640Z,6.50
2023-11-10T01:38:22.602Z,6.53
2023-11-10T01:40:51.901Z,6.00
2023-11-10T01:43:20.415Z,5.93
2023-11-10T01:45:48.521Z,7.20
2023-11-10T01:48:17.274Z,6.97
2023-11-10T01:50:45.943Z,4.97
2023-11-10T01:53:15.385Z,4.38
2023-11-10T01:55:48.760Z,3.78
2023-11-10T01:58:18.537Z,3.65
2023-11-10T02:00:47.150Z,4.25
2023-11-10T02:03:16.391Z,4.88
2023-11-10T02:05:44.610Z,4.60
2023-11-10T02:08:13.037Z,4.72
2023-11-10T02:10:41.167Z,4.55
2023-11-10T02:13:09.775Z,4.38
2023-11-10T02:15:37.875Z,4.13
2023-11-10T02:18:06.319Z,4.45
2023-11-10T02:20:34.435Z,3.65
2023-11-10T02:23:03.096Z,3.13
2023-11-10T02:25:31.388Z,3.95
2023-11-10T02:27:59.810Z,2.95
2023-11-10T02:30:28.010Z,3.72
2023-11-10T02:32:56.790Z,3.30
2023-11-10T02:35:24.952Z,3.15
2023-11-10T02:37:53.336Z,2.78
2023-11-10T02:40:21.397Z,2.85
2023-11-10T02:42:49.871Z,2.30
2023-11-10T02:45:18.103Z,2.78
2023-11-10T02:47:46.669Z,1.90
2023-11-10T02:50:14.846Z,2.35
2023-11-10T02:52:43.345Z,2.10
2023-11-10T02:55:11.534Z,2.30
2023-11-10T02:57:40.068Z,2.97
2023-11-10T03:00:11.243Z,2.30
2023-11-10T03:02:39.865Z,2.28
2023-11-10T03:05:08.999Z,2.78
2023-11-10T03:07:38.509Z,2.47
2023-11-10T03:10:10.312Z,2.72
2023-11-10T03:12:39.331Z,2.28
2023-11-10T03:15:08.437Z,3.00
2023-11-10T03:17:37.209Z,3.05
2023-11-10T03:20:08.114Z,3.35
2023-11-10T03:22:37.221Z,3.13
2023-11-10T03:25:05.737Z,3.40
2023-11-10T03:27:34.188Z,2.97
2023-11-10T03:30:02.355Z,3.20
2023-11-10T03:32:34.296Z,2.90
2023-11-10T03:35:02.826Z,3.40
2023-11-10T03:37:31.399Z,3.03
2023-11-10T03:39:59.572Z,3.33
2023-11-10T03:42:29.213Z,3.55
2023-11-10T03:44:57.769Z,3.58
2023-11-10T03:47:26.354Z,3.47
2023-11-10T03:49:54.507Z,3.58
2023-11-10T03:52:22.990Z,3.97
2023-11-10T03:54:51.175Z,3.00
2023-11-10T03:57:19.760Z,3.38
2023-11-10T03:59:48.019Z,3.75
2023-11-10T04:02:16.784Z,3.38
2023-11-10T04:04:45.210Z,3.58
2023-11-10T04:07:14.158Z,3.95
2023-11-10T04:09:42.578Z,3.50
2023-11-10T04:12:11.177Z,3.53
2023-11-10T04:14:41.966Z,3.38
2023-11-10T04:17:10.940Z,3.42
2023-11-10T04:19:39.144Z,3.65
2023-11-10T04:22:08.800Z,3.45
2023-11-10T04:24:37.010Z,4.53
2023-11-10T04:27:06.055Z,4.03
2023-11-10T04:29:34.180Z,4.18
2023-11-10T04:32:02.686Z,3.65
2023-11-10T04:34:30.868Z,4.20
2023-11-10T04:36:59.612Z,4.40
2023-11-10T04:39:27.771Z,4.53
2023-11-10T04:41:56.278Z,4.47
2023-11-10T04:44:24.768Z,4.22
2023-11-10T04:46:53.352Z,4.18
2023-11-10T04:49:21.501Z,4.35
2023-11-10T04:51:50.809Z,4.40
2023-11-10T04:54:19.145Z,4.65
2023-11-10T04:56:47.786Z,9.15
2023-11-10T04:59:16.168Z,4.80
2023-11-10T05:01:45.092Z,5.65
2023-11-10T05:04:14.152Z,4.88
2023-11-10T05:06:43.046Z,5.40
2023-11-10T05:09:11.461Z,5.00
2023-11-10T05:11:40.069Z,4.80
2023-11-10T05:14:10.102Z,5.13
2023-11-10T05:16:38.943Z,5.40
2023-11-10T05:19:07.081Z,5.32
2023-11-10T05:21:35.696Z,5.70
2023-11-10T05:24:04.263Z,6.43
2023-11-10T05:26:32.728Z,5.90
2023-11-10T05:29:00.817Z,6.50
2023-11-10T05:31:29.446Z,6.20
2023-11-10T05:33:58.483Z,6.43
2023-11-10T05:36:27.019Z,5.97
2023-11-10T05:38:55.204Z,7.50
2023-11-10T05:41:25.219Z,7.00
2023-11-10T05:43:53.243Z,6.57
2023-11-10T05:46:23.457Z,8.60
2023-11-10T05:48:51.565Z,7.30
2023-11-10T05:51:20.411Z,7.50
2023-11-10T05:53:48.556Z,7.10
2023-11-10T05:56:16.998Z,6.95
2023-11-10T05:58:45.173Z,6.30
2023-11-10T06:01:14.275Z,6.43
2023-11-10T06:03:43.363Z,6.63
2023-11-10T06:06:12.013Z,6.72
2023-11-10T06:08:40.402Z,6.82
2023-11-10T06:11:10.566Z,6.68
2023-11-10T06:13:38.669Z,6.57
2023-11-10T06:16:09.430Z,6.05
2023-11-10T06:18:37.712Z,6.60
2023-11-10T06:21:06.315Z,6.15
2023-11-10T07:16:13.970Z,4.20
2023-11-10T07:18:42.136Z,3.45
2023-11-10T07:21:12.273Z,3.03
2023-11-10T07:23:40.312Z,3.95
2023-11-10T07:26:08.712Z,4.10
2023-11-10T07:28:36.803Z,4.47
2023-11-10T07:31:05.710Z,4.20
2023-11-10T07:33:33.915Z,4.93
2023-11-10T07:36:02.878Z,5.13
2023-11-10T07:38:31.288Z,4.32
2023-11-10T07:41:00.168Z,4.00
2023-11-10T07:43:28.138Z,3.72
2023-11-10T07:45:56.653Z,2.55
2023-11-10T07:48:24.881Z,3.45
2023-11-10T07:50:53.299Z,2.63
2023-11-10T07:53:22.258Z,2.97
2023-11-10T07:55:51.677Z,2.78
2023-11-10T07:58:19.927Z,2.60
2023-11-10T08:00:49.186Z,3.35
2023-11-10T08:03:19.543Z,2.83
2023-11-10T08:05:48.229Z,3.17
2023-11-10T08:08:16.863Z,2.95
2023-11-10T08:10:45.367Z,3.50
2023-11-10T08:13:13.441Z,2.55
2023-11-10T08:15:45.198Z,2.90
2023-11-10T08:18:13.513Z,3.25
2023-11-10T08:20:41.931Z,3.20
2023-11-10T08:23:12.296Z,3.72
2023-11-10T08:25:41.395Z,4.10
2023-11-10T08:28:09.426Z,4.40
2023-11-10T08:30:37.946Z,4.40
2023-11-10T08:33:06.222Z,4.57
2023-11-10T08:35:34.656Z,4.82
2023-11-10T08:38:04.157Z,5.53
2023-11-10T08:40:35.451Z,6.05
2023-11-10T08:43:03.976Z,4.70
2023-11-10T08:45:32.840Z,6.05
2023-11-10T08:48:01.089Z,5.10
2023-11-10T08:50:29.317Z,4.28
2023-11-10T08:52:58.175Z,4.20
2023-11-10T08:55:26.344Z,4.45
2023-11-10T08:57:54.882Z,4.72
2023-11-10T09:00:23.076Z,4.55
2023-11-10T09:02:54.391Z,4.35
2023-11-10T09:05:23.930Z,3.88
2023-11-10T09:07:52.571Z,4.10
2023-11-10T09:10:20.797Z,4.80
2023-11-10T09:12:50.609Z,4.63
2023-11-10T09:15:19.610Z,4.90
2023-11-10T09:17:50.629Z,4.50
2023-11-10T09:20:18.843Z,5.25
2023-11-10T09:22:48.700Z,5.72
2023-11-10T09:25:21.717Z,4.78
2023-11-10T09:27:50.657Z,4.45
2023-11-10T09:30:18.702Z,4.47
2023-11-10T09:32:47.577Z,4.50
2023-11-10T09:35:18.466Z,4.45
2023-11-10T09:37:49.655Z,4.70
2023-11-10T09:40:17.805Z,4.75
2023-11-10T09:42:46.483Z,5.03
2023-11-10T09:45:17.798Z,5.95
2023-11-10T09:47:47.769Z,5.28
2023-11-10T09:50:19.670Z,6.20
2023-11-10T09:52:50.776Z,6.53
2023-11-10T09:55:19.825Z,6.30
2023-11-10T09:57:52.507Z,7.53
2023-11-10T10:00:22.570Z,8.35
2023-11-10T10:02:51.517Z,9.35
2023-11-10T10:05:19.920Z,8.48
2023-11-10T10:07:48.892Z,7.43
2023-11-10T10:10:16.942Z,8.45
2023-11-10T10:12:45.408Z,8.85
2023-11-10T10:15:13.743Z,8.38
2023-11-10T10:17:42.490Z,9.32
2023-11-10T10:20:15.769Z,8.80
2023-11-10T10:22:51.188Z,9.40
2023-11-10T10:25:22.345Z,9.75
2023-11-10T10:27:53.758Z,9.48
2023-11-10T10:30:22.047Z,9.85
2023-11-10T10:32:52.076Z,10.05
2023-11-10T10:35:20.249Z,8.65
2023-11-10T10:37:54.831Z,8.70
2023-11-10T10:40:24.465Z,9.32
2023-11-10T10:42:55.682Z,8.65
2023-11-10T10:45:30.480Z,9.38
2023-11-10T10:48:02.218Z,9.35
2023-11-10T10:50:32.650Z,8.55
2023-11-10T10:53:01.909Z,7.85
2023-11-10T10:55:33.263Z,8.43
2023-11-10T10:58:01.805Z,8.77
2023-11-10T11:00:32.580Z,9.88
2023-11-10T11:03:27.362Z,7.97
2023-11-10T11:06:33.302Z,7.28
2023-11-10T11:09:25.292Z,7.03
2023-11-10T11:12:16.827Z,7.60
2023-11-10T11:14:56.365Z,7.28
2023-11-10T11:17:48.510Z,8.93
2023-11-10T11:20:18.258Z,8.65
2023-11-10T11:22:47.455Z,9.60
2023-11-10T11:25:15.967Z,9.32
2023-11-10T11:27:44.182Z,8.85
2023-11-10T11:30:14.213Z,10.10
2023-11-10T11:32:44.362Z,9.43
2023-11-10T11:35:16.862Z,9.00
2023-11-10T11:37:46.751Z,9.95
2023-11-10T11:40:15.824Z,5.40
2023-11-10T11:42:44.494Z,5.68
2023-11-10T11:45:15.034Z,5.40
2023-11-10T11:47:44.530Z,3.80
2023-11-10T11:50:13.270Z,4.50
2023-11-10T11:52:42.450Z,6.60
2023-11-10T11:55:11.346Z,6.35
2023-11-10T11:57:39.762Z,7.70
2023-11-10T12:00:10.547Z,7.00
2023-11-10T12:02:41.213Z,6.57
2023-11-10T12:05:15.186Z,6.10
2023-11-10T12:10:15.679Z,6.00
2023-11-10T12:12:46.476Z,6.72
2023-11-10T12:15:18.290Z,8.80
2023-11-10T12:17:46.629Z,6.80
2023-11-10T12:20:14.989Z,9.88
2023-11-10T12:22:55.788Z,7.70
2023-11-10T12:25:28.123Z,6.90
2023-11-10T12:27:56.729Z,7.00
2023-11-10T12:30:25.511Z,6.57
2023-11-10T12:32:54.278Z,7.20
2023-11-10T12:35:23.629Z,6.63
2023-11-10T12:37:55.520Z,6.60
2023-11-10T12:40:26.151Z,8.02
2023-11-10T12:42:55.239Z,9.30
2023-11-10T12:45:26.117Z,8.82
2023-11-10T12:48:00.539Z,10.18
2023-11-10T12:50:34.507Z,10.10
2023-11-10T12:53:05.401Z,10.73
2023-11-10T12:55:34.147Z,10.98
2023-11-10T12:58:02.412Z,10.77
2023-11-10T13:00:31.045Z,12.50
2023-11-10T13:02:59.258Z,12.75
2023-11-10T13:05:27.908Z,11.13
2023-11-10T13:07:57.329Z,10.27
2023-11-10T13:10:25.680Z,11.52
2023-11-10T13:12:54.849Z,12.77
2023-11-10T13:15:23.402Z,12.30
2023-11-10T13:17:51.535Z,12.15
2023-11-10T13:20:23.239Z,14.07
2023-11-10T13:22:53.629Z,12.18
2023-11-10T13:25:22.219Z,12.57
2023-11-10T13:27:50.765Z,12.95
2023-11-10T13:30:20.368Z,12.18
2023-11-10T13:32:54.371Z,14.65
2023-11-10T13:35:23.711Z,14.20
2023-11-10T13:37:52.061Z,14.57
2023-11-10T13:40:20.585Z,12.30
2023-11-10T13:42:48.761Z,12.32
2023-11-10T13:45:17.159Z,12.80
2023-11-10T13:47:46.161Z,12.65
2023-11-10T13:50:14.656Z,13.18
2023-11-10T13:52:44.077Z,12.77
2023-11-10T13:55:13.966Z,13.30
2023-11-10T13:57:42.697Z,10.25
2023-11-10T14:00:14.408Z,11.52
2023-11-10T14:02:43.681Z,11.93
2023-11-10T14:05:13.239Z,11.85
2023-11-10T14:07:41.597Z,11.75
2023-11-10T14:10:10.880Z,12.52
2023-11-10T14:12:42.568Z,12.55
2023-11-10T14:15:16.005Z,12.73
2023-11-10T14:17:44.117Z,11.90
2023-11-10T14:20:12.706Z,11.75
2023-11-10T14:22:44.042Z,12.27
2023-11-10T14:25:13.627Z,11.50
2023-11-10T14:27:41.829Z,11.75
2023-11-10T14:30:11.395Z,13.07
2023-11-10T14:32:39.626Z,10.90
2023-11-10T14:35:11.772Z,11.35
2023-11-10T14:37:43.563Z,11.32
2023-11-10T14:40:20.441Z,12.10
2023-11-10T14:42:51.487Z,11.40
2023-11-10T14:45:23.609Z,11.73
2023-11-10T14:47:53.000Z,11.43
2023-11-10T14:50:38.593Z,11.82
2023-11-10T14:53:09.931Z,12.13
2023-11-10T14:55:40.316Z,13.48
2023-11-10T14:58:08.422Z,12.80
2023-11-10T15:00:40.834Z,12.93
2023-11-10T15:03:11.822Z,13.50
2023-11-10T15:05:40.629Z,13.60
2023-11-10T15:08:10.014Z,13.68
2023-11-10T15:10:39.432Z,14.13
2023-11-10T15:13:12.887Z,14.45
2023-11-10T15:18:21.402Z,12.18
2023-11-10T15:20:50.437Z,13.70
2023-11-10T15:23:21.093Z,13.20
2023-11-10T15:25:51.618Z,12.43
2023-11-10T15:28:19.948Z,13.93
2023-11-10T15:30:50.489Z,12.95
2023-11-10T15:33:19.398Z,13.68
2023-11-10T15:35:48.412Z,12.40
2023-11-10T15:38:18.284Z,11.70
2023-11-10T15:40:51.399Z,11.90
2023-11-10T15:43:20.297Z,13.30
2023-11-10T15:45:49.953Z,12.32
2023-11-10T15:48:18.620Z,11.02
2023-11-10T15:50:47.826Z,12.88
2023-11-10T15:53:15.965Z,12.57
2023-11-10T15:55:44.445Z,12.18
2023-11-10T15:58:12.606Z,11.70
2023-11-10T16:00:42.217Z,12.48
2023-11-10T16:03:10.699Z,12.57
2023-11-10T16:05:42.273Z,13.73
2023-11-10T16:08:11.891Z,13.48
2023-11-10T16:10:40.367Z,11.93
2023-11-10T16:13:08.413Z,12.93
2023-11-10T16:15:37.417Z,14.10
2023-11-10T16:18:06.735Z,12.25
2023-11-10T16:20:35.192Z,12.43
2023-11-10T16:23:04.455Z,14.38
2023-11-10T16:25:33.626Z,11.63
2023-11-10T16:28:01.798Z,12.18
2023-11-10T16:30:30.292Z,11.18
2023-11-10T16:33:00.362Z,11.93
2023-11-10T16:35:29.018Z,12.40
2023-11-10T16:37:57.253Z,12.73
2023-11-10T16:40:25.631Z,13.63
2023-11-10T16:42:53.801Z,12.90
2023-11-10T16:45:22.296Z,11.68
2023-11-10T16:47:50.607Z,11.95
2023-11-10T16:50:19.128Z,11.68
2023-11-10T16:52:47.132Z,12.93
2023-11-10T16:55:15.717Z,12.27
2023-11-10T16:57:43.973Z,13.10
2023-11-10T17:00:15.776Z,18.90
2023-11-10T17:02:46.314Z,17.05
2023-11-10T17:05:21.088Z,14.95
2023-11-10T17:07:50.724Z,12.48
2023-11-10T17:10:19.289Z,12.27
2023-11-10T17:12:48.030Z,12.52
2023-11-10T17:15:16.763Z,11.75
2023-11-10T17:17:46.730Z,12.63
2023-11-10T17:20:15.364Z,12.38
2023-11-10T17:22:43.559Z,14.07
2023-11-10T17:25:12.104Z,11.57
2023-11-10T17:27:40.489Z,15.38
2023-11-10T17:30:09.572Z,12.98
2023-11-10T17:32:37.928Z,13.60
2023-11-10T17:35:06.951Z,13.77
2023-11-10T17:37:35.228Z,12.95
2023-11-10T17:40:05.920Z,13.82
2023-11-10T17:42:35.409Z,13.20
2023-11-10T17:45:04.381Z,13.32
2023-11-10T17:47:39.196Z,12.98
2023-11-10T17:50:10.052Z,11.82
2023-11-10T17:52:38.315Z,13.07
2023-11-10T17:55:09.673Z,12.10
2023-11-10T17:57:37.955Z,13.35
2023-11-10T18:00:10.503Z,13.55
2023-11-10T18:02:41.900Z,12.55
2023-11-10T18:05:12.286Z,13.05
2023-11-10T18:07:41.432Z,12.55
2023-11-10T18:10:10.522Z,14.00
2023-11-10T18:12:38.703Z,12.07
2023-11-10T18:15:08.238Z,13.38
2023-11-10T18:17:37.126Z,12.95
2023-11-10T18:20:07.866Z,12.93
2023-11-10T18:22:36.095Z,13.23
2023-11-10T18:25:05.430Z,12.02
2023-11-10T18:27:34.190Z,12.80
2023-11-10T18:30:02.698Z,13.02
2023-11-10T18:32:30.872Z,13.55
2023-11-10T18:34:59.400Z,11.65
2023-11-10T18:37:27.869Z,13.43
2023-11-10T18:39:57.506Z,13.75
2023-11-10T18:42:26.823Z,13.77
2023-11-10T18:44:55.316Z,13.52
2023-11-10T18:47:23.442Z,13.35
2023-11-10T18:49:51.885Z,13.15
2023-11-10T18:52:20.093Z,13.25
2023-11-10T18:54:48.682Z,14.73
2023-11-10T18:57:16.792Z,14.13
2023-11-10T18:59:45.191Z,14.32
2023-11-10T19:02:13.272Z,14.32
2023-11-10T19:04:43.938Z,13.82
2023-11-10T19:07:12.860Z,14.90
2023-11-10T19:09:42.418Z,14.10
2023-11-10T19:12:10.559Z,15.05
2023-11-10T19:14:39.292Z,14.10
2023-11-10T19:17:08.386Z,13.95
2023-11-10T19:19:39.342Z,14.98
2023-11-10T19:22:08.851Z,15.10
2023-11-10T19:24:37.454Z,13.77
2023-11-10T19:27:05.897Z,13.93
2023-11-10T19:29:34.485Z,14.63
2023-11-10T19:32:02.600Z,15.90
2023-11-10T19:34:31.218Z,14.15
2023-11-10T19:36:59.354Z,13.68
2023-11-10T19:39:27.883Z,13.75
2023-11-10T19:41:56.378Z,16.65
2023-11-10T19:44:24.531Z,14.40
2023-11-10T19:46:53.094Z,14.52
2023-11-10T19:49:22.102Z,14.63
2023-11-10T19:56:53.661Z,14.98
2023-11-10T19:59:24.391Z,14.52
2023-11-10T20:01:54.064Z,14.55
2023-11-10T20:04:22.130Z,13.55
2023-11-10T20:06:51.702Z,14.00
2023-11-10T20:09:19.895Z,13.93
2023-11-10T20:11:48.491Z,14.10
2023-11-10T20:14:17.952Z,12.80
2023-11-10T20:16:48.044Z,13.38
2023-11-10T20:19:16.248Z,14.88
2023-11-10T20:21:44.915Z,15.52
2023-11-10T20:24:13.372Z,11.85
2023-11-10T20:26:42.420Z,12.95
2023-11-10T20:29:10.597Z,14.10
2023-11-10T20:31:39.229Z,12.40
2023-11-10T20:34:07.311Z,12.50
2023-11-10T20:36:36.033Z,12.50
2023-11-10T20:39:05.112Z,13.10
2023-11-10T20:41:33.471Z,12.93
2023-11-10T20:44:01.622Z,13.88
2023-11-10T20:46:30.232Z,12.40
2023-11-10T20:48:59.482Z,13.27
2023-11-10T20:51:28.157Z,13.85
2023-11-10T20:53:56.255Z,12.88
2023-11-10T20:56:26.498Z,13.27
2023-11-10T20:58:54.624Z,13.80
2023-11-10T21:01:24.157Z,14.30
2023-11-10T21:03:52.470Z,15.10
2023-11-10T21:06:23.708Z,12.88
2023-11-10T21:08:51.867Z,13.05
2023-11-10T21:11:20.519Z,13.90
2023-11-10T21:13:48.709Z,13.48
2023-11-10T21:16:17.175Z,13.50
2023-11-10T21:18:45.493Z,14.13
2023-11-10T21:21:15.232Z,14.32
2023-11-10T21:23:43.484Z,13.68
2023-11-10T21:26:12.074Z,13.48
2023-11-10T21:28:40.514Z,14.10
2023-11-10T21:31:08.939Z,13.40
2023-11-10T21:33:38.513Z,14.05
2023-11-10T21:36:07.481Z,15.82
2023-11-10T21:38:38.682Z,13.15
2023-11-10T21:41:07.170Z,13.05
2023-11-10T21:43:35.913Z,14.48
2023-11-10T21:46:04.483Z,13.77
2023-11-10T21:48:34.449Z,14.02
2023-11-10T21:51:03.974Z,14.68
2023-11-10T21:53:32.032Z,14.18
2023-11-10T21:56:00.513Z,13.68
2023-11-10T21:58:28.627Z,14.10
2023-11-10T22:00:58.324Z,13.10
2023-11-10T22:03:26.680Z,14.10
2023-11-10T22:05:55.279Z,15.20
2023-11-10T22:08:23.360Z,12.95
2023-11-10T22:10:51.754Z,13.38
2023-11-10T22:13:19.840Z,14.57
2023-11-10T22:15:48.227Z,14.60
2023-11-10T22:18:16.854Z,13.13
2023-11-10T22:20:45.431Z,13.10
2023-11-10T22:23:13.646Z,15.85
2023-11-10T22:25:42.054Z,13.50
2023-11-10T22:28:10.146Z,14.25
2023-11-10T22:30:38.696Z,15.50
2023-11-10T22:33:06.871Z,14.13
2023-11-10T22:35:35.631Z,14.75
2023-11-10T22:38:03.794Z,13.90
2023-11-10T22:40:32.198Z,15.55
2023-11-10T22:43:00.382Z,15.23
2023-11-10T22:45:29.689Z,14.73
2023-11-10T22:47:58.672Z,16.65
2023-11-10T22:50:27.184Z,16.98
2023-11-10T22:52:55.379Z,15.45
2023-11-10T22:55:25.230Z,16.05
2023-11-10T22:57:53.315Z,15.13
2023-11-10T23:00:28.431Z,16.42
2023-11-10T23:02:57.087Z,15.88
2023-11-10T23:05:26.072Z,16.77
2023-11-10T23:07:56.128Z,17.15
2023-11-10T23:10:29.472Z,17.83
2023-11-10T23:13:00.292Z,17.38
2023-11-10T23:15:30.917Z,16.58
2023-11-10T23:18:00.110Z,17.98
2023-11-10T23:20:34.714Z,16.30
2023-11-10T23:23:05.222Z,15.73
2023-11-10T23:25:38.929Z,18.38
2023-11-10T23:28:07.390Z,18.00
2023-11-10T23:30:36.053Z,17.35
2023-11-10T23:33:04.662Z,16.92
2023-11-10T23:35:35.106Z,18.08
2023-11-10T23:38:03.501Z,18.55
2023-11-10T23:40:34.046Z,18.52
2023-11-10T23:43:02.138Z,19.08
2023-11-10T23:45:30.644Z,19.33
2023-11-10T23:47:58.921Z,19.55
2023-11-10T23:50:28.599Z,17.88
2023-11-10T23:52:56.836Z,17.40
2023-11-10T23:55:25.296Z,19.48
2023-11-10T23:57:53.368Z,16.38
